aviador You're here:

KBLF Decoded Metar

BLUEFIELD in WV, USA
Report Time2017-09-23 08:52:00
UTC Time2017-09-23 09:17:36
Flight Rules vfr VFR
WindCalm
Visibility9999 m
Phenomena:N/A
Clouds:N/A
Expected CloudBase > 400 ft AGL from Temp-Dew spread
CeilingNone
Temp16°C (ISA +7)
Dew Point15°C (94% RH)
QNH1021 hPa
Density Alt3,619 ft
Elevation2,864 ft
Report Wrong Elevation
Raw Report
KBLF 230852Z AUTO 00000KT 10SM CLR 16/15 A3015 RMK AO2 SLP175
T01610150 56005=

Extra information for KBLF:More info

Metar Taf Metar & Taf Last 4 Metars F.Rules Stats Wind Profile Meteogram Temp Stats Airport Information Weather charts Add Link Nearby VenuesMetar ALERT Operation Metar Decoded Social comments

AIRNAV info for KBLF